sensor_id;sensor_type;location;lat;lon;timestamp;P1;durP1;ratioP1;P2;durP2;ratioP2
57325;SDS011;43161;50.950;18.224;2022-09-09T00:00:38;24.10;;;9.10;;
57325;SDS011;43161;50.950;18.224;2022-09-09T00:11:36;20.70;;;9.80;;
57325;SDS011;43161;50.950;18.224;2022-09-09T00:16:58;39.00;;;10.90;;
57325;SDS011;43161;50.950;18.224;2022-09-09T00:19:37;34.30;;;11.50;;
57325;SDS011;43161;50.950;18.224;2022-09-09T00:24:43;25.50;;;12.60;;
57325;SDS011;43161;50.950;18.224;2022-09-09T00:27:14;25.60;;;12.90;;
57325;SDS011;43161;50.950;18.224;2022-09-09T00:29:45;22.90;;;12.80;;
57325;SDS011;43161;50.950;18.224;2022-09-09T00:32:20;23.20;;;13.80;;
57325;SDS011;43161;50.950;18.224;2022-09-09T00:34:48;23.20;;;12.20;;
57325;SDS011;43161;50.950;18.224;2022-09-09T00:37:17;24.40;;;14.00;;
57325;SDS011;43161;50.950;18.224;2022-09-09T00:39:45;29.80;;;12.70;;
57325;SDS011;43161;50.950;18.224;2022-09-09T00:42:18;36.00;;;12.70;;
57325;SDS011;43161;50.950;18.224;2022-09-09T00:55:53;76.40;;;14.30;;
57325;SDS011;43161;50.950;18.224;2022-09-09T00:58:42;38.10;;;11.60;;
57325;SDS011;43161;50.950;18.224;2022-09-09T01:01:10;50.60;;;12.30;;
57325;SDS011;43161;50.950;18.224;2022-09-09T01:03:38;46.00;;;12.10;;
57325;SDS011;43161;50.950;18.224;2022-09-09T01:12:10;38.00;;;13.10;;
57325;SDS011;43161;50.950;18.224;2022-09-09T01:20:30;37.20;;;12.30;;
57325;SDS011;43161;50.950;18.224;2022-09-09T01:28:39;41.00;;;16.60;;
57325;SDS011;43161;50.950;18.224;2022-09-09T01:33:34;38.30;;;16.60;;
57325;SDS011;43161;50.950;18.224;2022-09-09T01:38:36;39.80;;;17.20;;
57325;SDS011;43161;50.950;18.224;2022-09-09T01:41:02;33.20;;;15.30;;
57325;SDS011;43161;50.950;18.224;2022-09-09T01:43:28;35.80;;;16.10;;
57325;SDS011;43161;50.950;18.224;2022-09-09T01:45:54;34.80;;;17.30;;
57325;SDS011;43161;50.950;18.224;2022-09-09T01:48:22;35.00;;;17.10;;
57325;SDS011;43161;50.950;18.224;2022-09-09T01:50:49;31.50;;;16.50;;
57325;SDS011;43161;50.950;18.224;2022-09-09T01:53:15;29.60;;;15.00;;
57325;SDS011;43161;50.950;18.224;2022-09-09T01:55:45;27.70;;;15.80;;
57325;SDS011;43161;50.950;18.224;2022-09-09T02:03:39;37.70;;;17.10;;
57325;SDS011;43161;50.950;18.224;2022-09-09T02:09:04;24.70;;;14.40;;
57325;SDS011;43161;50.950;18.224;2022-09-09T02:11:31;29.20;;;16.30;;
57325;SDS011;43161;50.950;18.224;2022-09-09T02:14:01;31.50;;;16.50;;
57325;SDS011;43161;50.950;18.224;2022-09-09T02:22:00;33.00;;;17.60;;
57325;SDS011;43161;50.950;18.224;2022-09-09T02:24:27;29.90;;;17.40;;
57325;SDS011;43161;50.950;18.224;2022-09-09T02:26:54;29.90;;;16.60;;
57325;SDS011;43161;50.950;18.224;2022-09-09T02:29:23;25.90;;;16.10;;
57325;SDS011;43161;50.950;18.224;2022-09-09T02:31:52;27.30;;;17.60;;
57325;SDS011;43161;50.950;18.224;2022-09-09T02:34:20;30.20;;;17.40;;
57325;SDS011;43161;50.950;18.224;2022-09-09T02:36:47;28.30;;;18.00;;
57325;SDS011;43161;50.950;18.224;2022-09-09T02:39:13;30.70;;;18.30;;
57325;SDS011;43161;50.950;18.224;2022-09-09T02:41:40;26.00;;;17.90;;
57325;SDS011;43161;50.950;18.224;2022-09-09T02:44:14;28.10;;;18.20;;
57325;SDS011;43161;50.950;18.224;2022-09-09T02:52:21;27.20;;;18.30;;
57325;SDS011;43161;50.950;18.224;2022-09-09T02:54:54;27.90;;;18.40;;
57325;SDS011;43161;50.950;18.224;2022-09-09T02:57:25;29.60;;;19.30;;
57325;SDS011;43161;50.950;18.224;2022-09-09T02:59:53;32.30;;;17.50;;
57325;SDS011;43161;50.950;18.224;2022-09-09T03:02:20;24.00;;;16.80;;
57325;SDS011;43161;50.950;18.224;2022-09-09T03:04:46;25.90;;;16.30;;
57325;SDS011;43161;50.950;18.224;2022-09-09T03:07:16;27.90;;;17.80;;
57325;SDS011;43161;50.950;18.224;2022-09-09T03:09:42;29.20;;;18.40;;
57325;SDS011;43161;50.950;18.224;2022-09-09T03:12:08;32.10;;;20.40;;
57325;SDS011;43161;50.950;18.224;2022-09-09T03:14:36;32.90;;;18.00;;
57325;SDS011;43161;50.950;18.224;2022-09-09T03:17:04;29.40;;;18.50;;
57325;SDS011;43161;50.950;18.224;2022-09-09T03:19:30;27.70;;;17.10;;
57325;SDS011;43161;50.950;18.224;2022-09-09T03:21:56;26.20;;;16.70;;
57325;SDS011;43161;50.950;18.224;2022-09-09T03:24:24;28.10;;;18.20;;
57325;SDS011;43161;50.950;18.224;2022-09-09T03:26:50;29.10;;;18.60;;
57325;SDS011;43161;50.950;18.224;2022-09-09T03:29:16;30.70;;;18.40;;
57325;SDS011;43161;50.950;18.224;2022-09-09T03:31:43;25.50;;;16.80;;
57325;SDS011;43161;50.950;18.224;2022-09-09T03:34:09;32.90;;;20.10;;
57325;SDS011;43161;50.950;18.224;2022-09-09T03:36:35;33.00;;;19.70;;
57325;SDS011;43161;50.950;18.224;2022-09-09T03:39:00;30.50;;;19.30;;
57325;SDS011;43161;50.950;18.224;2022-09-09T03:41:28;31.10;;;19.00;;
57325;SDS011;43161;50.950;18.224;2022-09-09T03:43:55;31.10;;;21.30;;
57325;SDS011;43161;50.950;18.224;2022-09-09T03:46:22;29.20;;;19.30;;
57325;SDS011;43161;50.950;18.224;2022-09-09T03:48:49;24.70;;;17.90;;
57325;SDS011;43161;50.950;18.224;2022-09-09T03:51:16;29.00;;;21.00;;
57325;SDS011;43161;50.950;18.224;2022-09-09T03:53:42;25.00;;;18.60;;
57325;SDS011;43161;50.950;18.224;2022-09-09T03:56:08;30.90;;;20.50;;
57325;SDS011;43161;50.950;18.224;2022-09-09T03:58:35;29.30;;;19.90;;
57325;SDS011;43161;50.950;18.224;2022-09-09T04:01:03;29.90;;;20.00;;
57325;SDS011;43161;50.950;18.224;2022-09-09T04:03:35;23.10;;;17.30;;
57325;SDS011;43161;50.950;18.224;2022-09-09T04:06:02;27.90;;;20.00;;
57325;SDS011;43161;50.950;18.224;2022-09-09T04:08:29;29.70;;;20.10;;
57325;SDS011;43161;50.950;18.224;2022-09-09T04:10:58;28.80;;;20.40;;
57325;SDS011;43161;50.950;18.224;2022-09-09T04:13:24;29.10;;;20.50;;
57325;SDS011;43161;50.950;18.224;2022-09-09T04:15:51;28.90;;;21.10;;
57325;SDS011;43161;50.950;18.224;2022-09-09T04:18:21;26.40;;;19.60;;
57325;SDS011;43161;50.950;18.224;2022-09-09T04:20:48;29.10;;;20.80;;
57325;SDS011;43161;50.950;18.224;2022-09-09T04:23:14;28.50;;;20.40;;
57325;SDS011;43161;50.950;18.224;2022-09-09T04:25:43;25.90;;;18.90;;
57325;SDS011;43161;50.950;18.224;2022-09-09T04:28:13;31.70;;;21.10;;
57325;SDS011;43161;50.950;18.224;2022-09-09T04:30:40;33.80;;;21.10;;
57325;SDS011;43161;50.950;18.224;2022-09-09T04:33:06;27.80;;;20.50;;
57325;SDS011;43161;50.950;18.224;2022-09-09T04:37:58;27.50;;;19.60;;
57325;SDS011;43161;50.950;18.224;2022-09-09T04:40:24;27.50;;;19.30;;
57325;SDS011;43161;50.950;18.224;2022-09-09T04:42:50;31.40;;;22.00;;
57325;SDS011;43161;50.950;18.224;2022-09-09T04:45:16;28.50;;;21.40;;
57325;SDS011;43161;50.950;18.224;2022-09-09T04:47:43;27.20;;;20.10;;
57325;SDS011;43161;50.950;18.224;2022-09-09T04:50:09;28.50;;;22.00;;
57325;SDS011;43161;50.950;18.224;2022-09-09T04:52:35;32.50;;;21.40;;
57325;SDS011;43161;50.950;18.224;2022-09-09T04:55:01;30.90;;;21.30;;
57325;SDS011;43161;50.950;18.224;2022-09-09T04:57:27;24.00;;;19.30;;
57325;SDS011;43161;50.950;18.224;2022-09-09T04:59:54;23.90;;;19.50;;
57325;SDS011;43161;50.950;18.224;2022-09-09T05:02:20;28.60;;;19.90;;
57325;SDS011;43161;50.950;18.224;2022-09-09T05:04:46;27.10;;;20.40;;
57325;SDS011;43161;50.950;18.224;2022-09-09T05:07:11;30.20;;;20.60;;
57325;SDS011;43161;50.950;18.224;2022-09-09T05:09:38;30.10;;;21.50;;
57325;SDS011;43161;50.950;18.224;2022-09-09T05:12:04;28.30;;;20.80;;
57325;SDS011;43161;50.950;18.224;2022-09-09T05:14:29;30.50;;;22.50;;
57325;SDS011;43161;50.950;18.224;2022-09-09T05:16:55;28.70;;;22.30;;
57325;SDS011;43161;50.950;18.224;2022-09-09T05:19:21;29.90;;;21.90;;
57325;SDS011;43161;50.950;18.224;2022-09-09T05:21:47;30.40;;;22.20;;
57325;SDS011;43161;50.950;18.224;2022-09-09T05:24:13;28.50;;;20.70;;
57325;SDS011;43161;50.950;18.224;2022-09-09T05:26:39;29.80;;;20.70;;
57325;SDS011;43161;50.950;18.224;2022-09-09T05:29:05;26.80;;;20.90;;
57325;SDS011;43161;50.950;18.224;2022-09-09T05:31:31;26.30;;;20.30;;
57325;SDS011;43161;50.950;18.224;2022-09-09T05:33:58;33.50;;;22.20;;
57325;SDS011;43161;50.950;18.224;2022-09-09T05:36:25;30.00;;;23.10;;
57325;SDS011;43161;50.950;18.224;2022-09-09T05:38:51;32.70;;;23.70;;
57325;SDS011;43161;50.950;18.224;2022-09-09T05:41:19;32.70;;;24.60;;
57325;SDS011;43161;50.950;18.224;2022-09-09T05:43:45;31.80;;;22.80;;
57325;SDS011;43161;50.950;18.224;2022-09-09T05:46:15;31.60;;;22.70;;
57325;SDS011;43161;50.950;18.224;2022-09-09T05:48:43;35.20;;;23.50;;
57325;SDS011;43161;50.950;18.224;2022-09-09T05:51:12;31.70;;;23.70;;
57325;SDS011;43161;50.950;18.224;2022-09-09T05:53:43;31.00;;;23.70;;
57325;SDS011;43161;50.950;18.224;2022-09-09T06:03:33;27.80;;;22.40;;
57325;SDS011;43161;50.950;18.224;2022-09-09T06:06:00;27.10;;;19.40;;
57325;SDS011;43161;50.950;18.224;2022-09-09T06:08:27;28.30;;;20.50;;
57325;SDS011;43161;50.950;18.224;2022-09-09T06:10:53;25.70;;;20.80;;
57325;SDS011;43161;50.950;18.224;2022-09-09T06:13:22;24.80;;;17.40;;
57325;SDS011;43161;50.950;18.224;2022-09-09T06:15:49;25.80;;;19.40;;
57325;SDS011;43161;50.950;18.224;2022-09-09T06:18:16;26.50;;;20.60;;
57325;SDS011;43161;50.950;18.224;2022-09-09T06:23:29;26.90;;;21.80;;
57325;SDS011;43161;50.950;18.224;2022-09-09T06:26:03;26.70;;;20.30;;
57325;SDS011;43161;50.950;18.224;2022-09-09T06:28:34;27.00;;;21.20;;
57325;SDS011;43161;50.950;18.224;2022-09-09T06:31:01;30.40;;;20.20;;
57325;SDS011;43161;50.950;18.224;2022-09-09T06:33:36;26.10;;;20.90;;
57325;SDS011;43161;50.950;18.224;2022-09-09T06:36:04;23.10;;;18.90;;
57325;SDS011;43161;50.950;18.224;2022-09-09T06:38:31;24.60;;;19.80;;
57325;SDS011;43161;50.950;18.224;2022-09-09T06:40:57;21.30;;;18.10;;
57325;SDS011;43161;50.950;18.224;2022-09-09T06:43:27;21.00;;;18.50;;
57325;SDS011;43161;50.950;18.224;2022-09-09T06:45:54;20.40;;;17.90;;
57325;SDS011;43161;50.950;18.224;2022-09-09T06:48:20;20.10;;;17.20;;
57325;SDS011;43161;50.950;18.224;2022-09-09T06:50:46;24.30;;;16.20;;
57325;SDS011;43161;50.950;18.224;2022-09-09T06:53:15;21.40;;;14.80;;
57325;SDS011;43161;50.950;18.224;2022-09-09T06:55:45;19.20;;;16.70;;
57325;SDS011;43161;50.950;18.224;2022-09-09T06:58:11;20.10;;;17.20;;
57325;SDS011;43161;50.950;18.224;2022-09-09T07:00:36;18.60;;;16.60;;
57325;SDS011;43161;50.950;18.224;2022-09-09T07:03:04;17.30;;;14.70;;
57325;SDS011;43161;50.950;18.224;2022-09-09T07:05:31;20.10;;;15.50;;
57325;SDS011;43161;50.950;18.224;2022-09-09T07:07:57;20.70;;;15.60;;
57325;SDS011;43161;50.950;18.224;2022-09-09T07:10:24;18.20;;;15.80;;
57325;SDS011;43161;50.950;18.224;2022-09-09T07:12:50;22.90;;;17.20;;
57325;SDS011;43161;50.950;18.224;2022-09-09T07:15:18;17.50;;;15.40;;
57325;SDS011;43161;50.950;18.224;2022-09-09T07:17:44;23.00;;;16.70;;
57325;SDS011;43161;50.950;18.224;2022-09-09T07:20:10;22.30;;;17.10;;
57325;SDS011;43161;50.950;18.224;2022-09-09T07:22:37;15.50;;;13.00;;
57325;SDS011;43161;50.950;18.224;2022-09-09T07:25:03;12.30;;;11.10;;
57325;SDS011;43161;50.950;18.224;2022-09-09T07:27:30;15.30;;;13.80;;
57325;SDS011;43161;50.950;18.224;2022-09-09T07:29:56;18.90;;;15.40;;
57325;SDS011;43161;50.950;18.224;2022-09-09T07:32:22;16.40;;;12.80;;
57325;SDS011;43161;50.950;18.224;2022-09-09T07:34:48;13.30;;;11.90;;
57325;SDS011;43161;50.950;18.224;2022-09-09T07:37:16;14.40;;;12.90;;
57325;SDS011;43161;50.950;18.224;2022-09-09T07:39:42;13.50;;;12.20;;
57325;SDS011;43161;50.950;18.224;2022-09-09T07:42:08;11.40;;;10.20;;
57325;SDS011;43161;50.950;18.224;2022-09-09T07:44:36;11.20;;;10.20;;
57325;SDS011;43161;50.950;18.224;2022-09-09T07:47:05;10.80;;;9.80;;
57325;SDS011;43161;50.950;18.224;2022-09-09T07:49:31;10.70;;;8.90;;
57325;SDS011;43161;50.950;18.224;2022-09-09T07:54:23;8.70;;;7.80;;
57325;SDS011;43161;50.950;18.224;2022-09-09T07:56:50;7.80;;;7.10;;
57325;SDS011;43161;50.950;18.224;2022-09-09T07:59:16;9.40;;;7.10;;
57325;SDS011;43161;50.950;18.224;2022-09-09T08:01:44;7.70;;;6.40;;
57325;SDS011;43161;50.950;18.224;2022-09-09T08:04:15;7.20;;;4.90;;
57325;SDS011;43161;50.950;18.224;2022-09-09T08:06:52;6.70;;;5.90;;
57325;SDS011;43161;50.950;18.224;2022-09-09T08:11:46;10.80;;;6.80;;
57325;SDS011;43161;50.950;18.224;2022-09-09T08:14:12;6.80;;;6.20;;
57325;SDS011;43161;50.950;18.224;2022-09-09T08:16:40;7.10;;;6.40;;
57325;SDS011;43161;50.950;18.224;2022-09-09T08:19:10;5.40;;;4.90;;
57325;SDS011;43161;50.950;18.224;2022-09-09T08:21:37;8.70;;;6.30;;
57325;SDS011;43161;50.950;18.224;2022-09-09T08:24:05;6.40;;;5.80;;
57325;SDS011;43161;50.950;18.224;2022-09-09T08:26:32;7.00;;;6.20;;
57325;SDS011;43161;50.950;18.224;2022-09-09T08:29:00;5.80;;;5.30;;
57325;SDS011;43161;50.950;18.224;2022-09-09T08:31:31;7.80;;;5.20;;
57325;SDS011;43161;50.950;18.224;2022-09-09T08:34:02;7.50;;;5.40;;
57325;SDS011;43161;50.950;18.224;2022-09-09T08:38:56;9.40;;;6.20;;
57325;SDS011;43161;50.950;18.224;2022-09-09T08:58:01;7.10;;;6.50;;
57325;SDS011;43161;50.950;18.224;2022-09-09T09:06:04;4.40;;;4.00;;
57325;SDS011;43161;50.950;18.224;2022-09-09T09:08:54;8.60;;;6.50;;
57325;SDS011;43161;50.950;18.224;2022-09-09T09:11:22;6.00;;;4.90;;
57325;SDS011;43161;50.950;18.224;2022-09-09T09:13:58;5.00;;;4.40;;
57325;SDS011;43161;50.950;18.224;2022-09-09T09:16:39;8.60;;;6.00;;
57325;SDS011;43161;50.950;18.224;2022-09-09T09:19:25;6.10;;;5.50;;
57325;SDS011;43161;50.950;18.224;2022-09-09T09:24:48;4.80;;;4.40;;
57325;SDS011;43161;50.950;18.224;2022-09-09T09:27:18;6.10;;;5.00;;
57325;SDS011;43161;50.950;18.224;2022-09-09T09:30:12;6.00;;;5.00;;
57325;SDS011;43161;50.950;18.224;2022-09-09T09:32:53;4.00;;;3.50;;
57325;SDS011;43161;50.950;18.224;2022-09-09T09:35:19;5.30;;;4.30;;
57325;SDS011;43161;50.950;18.224;2022-09-09T09:37:45;4.60;;;4.20;;
57325;SDS011;43161;50.950;18.224;2022-09-09T09:40:13;4.30;;;3.80;;
57325;SDS011;43161;50.950;18.224;2022-09-09T09:42:51;8.50;;;4.10;;
57325;SDS011;43161;50.950;18.224;2022-09-09T09:48:09;4.70;;;4.20;;
57325;SDS011;43161;50.950;18.224;2022-09-09T09:50:46;7.80;;;5.00;;
57325;SDS011;43161;50.950;18.224;2022-09-09T09:53:22;4.90;;;4.30;;
57325;SDS011;43161;50.950;18.224;2022-09-09T09:58:26;3.30;;;3.00;;
57325;SDS011;43161;50.950;18.224;2022-09-09T10:00:56;4.60;;;4.20;;
57325;SDS011;43161;50.950;18.224;2022-09-09T10:03:27;3.90;;;3.60;;
57325;SDS011;43161;50.950;18.224;2022-09-09T10:05:54;4.10;;;3.70;;
57325;SDS011;43161;50.950;18.224;2022-09-09T10:08:22;3.90;;;2.80;;
57325;SDS011;43161;50.950;18.224;2022-09-09T10:16:37;4.20;;;3.90;;
57325;SDS011;43161;50.950;18.224;2022-09-09T10:19:32;5.90;;;3.10;;
57325;SDS011;43161;50.950;18.224;2022-09-09T10:33:23;4.70;;;2.30;;
57325;SDS011;43161;50.950;18.224;2022-09-09T10:36:02;4.80;;;3.00;;
57325;SDS011;43161;50.950;18.224;2022-09-09T10:57:44;3.70;;;2.80;;
57325;SDS011;43161;50.950;18.224;2022-09-09T11:00:14;2.30;;;2.00;;
57325;SDS011;43161;50.950;18.224;2022-09-09T11:02:41;3.20;;;1.20;;
57325;SDS011;43161;50.950;18.224;2022-09-09T11:07:52;2.90;;;1.90;;
57325;SDS011;43161;50.950;18.224;2022-09-09T11:13:02;4.60;;;1.90;;
57325;SDS011;43161;50.950;18.224;2022-09-09T11:15:52;2.20;;;1.00;;
57325;SDS011;43161;50.950;18.224;2022-09-09T11:18:19;2.60;;;1.10;;
57325;SDS011;43161;50.950;18.224;2022-09-09T11:20:47;2.50;;;1.40;;
57325;SDS011;43161;50.950;18.224;2022-09-09T11:23:21;2.20;;;1.10;;
57325;SDS011;43161;50.950;18.224;2022-09-09T11:25:56;2.50;;;1.10;;
57325;SDS011;43161;50.950;18.224;2022-09-09T11:28:38;3.10;;;1.20;;
57325;SDS011;43161;50.950;18.224;2022-09-09T11:34:21;2.20;;;1.40;;
57325;SDS011;43161;50.950;18.224;2022-09-09T11:39:44;2.00;;;1.50;;
57325;SDS011;43161;50.950;18.224;2022-09-09T11:42:35;2.10;;;1.30;;
57325;SDS011;43161;50.950;18.224;2022-09-09T11:47:53;1.10;;;1.00;;
57325;SDS011;43161;50.950;18.224;2022-09-09T11:52:46;2.90;;;1.10;;
57325;SDS011;43161;50.950;18.224;2022-09-09T11:58:03;4.80;;;1.60;;
57325;SDS011;43161;50.950;18.224;2022-09-09T12:00:43;2.10;;;1.40;;
57325;SDS011;43161;50.950;18.224;2022-09-09T12:06:08;3.30;;;1.10;;
57325;SDS011;43161;50.950;18.224;2022-09-09T12:08:36;1.60;;;1.50;;
57325;SDS011;43161;50.950;18.224;2022-09-09T12:11:02;4.90;;;1.10;;
57325;SDS011;43161;50.950;18.224;2022-09-09T12:13:31;2.10;;;1.10;;
57325;SDS011;43161;50.950;18.224;2022-09-09T12:15:57;2.50;;;1.00;;
57325;SDS011;43161;50.950;18.224;2022-09-09T12:24:11;1.80;;;1.50;;
57325;SDS011;43161;50.950;18.224;2022-09-09T12:26:43;4.50;;;1.70;;
57325;SDS011;43161;50.950;18.224;2022-09-09T12:37:23;1.80;;;1.50;;
57325;SDS011;43161;50.950;18.224;2022-09-09T12:42:53;4.20;;;1.80;;
57325;SDS011;43161;50.950;18.224;2022-09-09T12:45:21;5.20;;;1.60;;
57325;SDS011;43161;50.950;18.224;2022-09-09T12:47:53;2.60;;;1.40;;
57325;SDS011;43161;50.950;18.224;2022-09-09T12:50:22;3.40;;;1.40;;
57325;SDS011;43161;50.950;18.224;2022-09-09T12:52:54;2.70;;;1.30;;
57325;SDS011;43161;50.950;18.224;2022-09-09T12:55:21;2.10;;;1.10;;
57325;SDS011;43161;50.950;18.224;2022-09-09T12:58:00;1.00;;;0.90;;
57325;SDS011;43161;50.950;18.224;2022-09-09T13:00:29;3.50;;;1.50;;
57325;SDS011;43161;50.950;18.224;2022-09-09T13:02:57;1.80;;;1.20;;
57325;SDS011;43161;50.950;18.224;2022-09-09T13:05:25;3.80;;;1.70;;
57325;SDS011;43161;50.950;18.224;2022-09-09T13:10:48;5.10;;;1.70;;
57325;SDS011;43161;50.950;18.224;2022-09-09T13:13:21;3.60;;;1.70;;
57325;SDS011;43161;50.950;18.224;2022-09-09T13:15:54;6.30;;;1.90;;
57325;SDS011;43161;50.950;18.224;2022-09-09T13:18:28;5.20;;;1.50;;
57325;SDS011;43161;50.950;18.224;2022-09-09T13:20:56;3.50;;;1.30;;
57325;SDS011;43161;50.950;18.224;2022-09-09T13:25:56;3.40;;;1.30;;
57325;SDS011;43161;50.950;18.224;2022-09-09T13:28:27;4.10;;;1.50;;
57325;SDS011;43161;50.950;18.224;2022-09-09T13:31:01;2.70;;;1.00;;
57325;SDS011;43161;50.950;18.224;2022-09-09T13:33:36;3.00;;;1.00;;
57325;SDS011;43161;50.950;18.224;2022-09-09T13:36:03;2.10;;;1.10;;
57325;SDS011;43161;50.950;18.224;2022-09-09T13:38:31;3.40;;;0.90;;
57325;SDS011;43161;50.950;18.224;2022-09-09T13:41:21;1.30;;;0.80;;
57325;SDS011;43161;50.950;18.224;2022-09-09T13:43:50;1.90;;;1.30;;
57325;SDS011;43161;50.950;18.224;2022-09-09T13:46:23;2.70;;;1.00;;
57325;SDS011;43161;50.950;18.224;2022-09-09T13:48:58;2.40;;;1.20;;
57325;SDS011;43161;50.950;18.224;2022-09-09T13:51:30;1.90;;;1.40;;
57325;SDS011;43161;50.950;18.224;2022-09-09T13:53:59;3.50;;;1.00;;
57325;SDS011;43161;50.950;18.224;2022-09-09T13:56:26;5.30;;;1.00;;
57325;SDS011;43161;50.950;18.224;2022-09-09T13:58:51;7.90;;;1.20;;
57325;SDS011;43161;50.950;18.224;2022-09-09T14:01:17;1.50;;;1.20;;
57325;SDS011;43161;50.950;18.224;2022-09-09T14:03:43;2.40;;;1.50;;
57325;SDS011;43161;50.950;18.224;2022-09-09T14:06:11;1.60;;;1.20;;
57325;SDS011;43161;50.950;18.224;2022-09-09T14:08:37;2.10;;;0.90;;
57325;SDS011;43161;50.950;18.224;2022-09-09T14:11:04;1.60;;;1.20;;
57325;SDS011;43161;50.950;18.224;2022-09-09T14:13:30;3.20;;;0.70;;
57325;SDS011;43161;50.950;18.224;2022-09-09T14:15:56;5.60;;;1.10;;
57325;SDS011;43161;50.950;18.224;2022-09-09T14:18:21;1.80;;;0.90;;
57325;SDS011;43161;50.950;18.224;2022-09-09T14:20:48;2.00;;;1.00;;
57325;SDS011;43161;50.950;18.224;2022-09-09T14:23:15;1.30;;;0.90;;
57325;SDS011;43161;50.950;18.224;2022-09-09T14:25:42;2.30;;;0.90;;
57325;SDS011;43161;50.950;18.224;2022-09-09T14:28:11;1.80;;;1.00;;
57325;SDS011;43161;50.950;18.224;2022-09-09T14:30:39;4.10;;;1.30;;
57325;SDS011;43161;50.950;18.224;2022-09-09T14:33:06;5.20;;;1.40;;
57325;SDS011;43161;50.950;18.224;2022-09-09T14:35:33;1.30;;;1.00;;
57325;SDS011;43161;50.950;18.224;2022-09-09T14:37:59;2.80;;;1.10;;
57325;SDS011;43161;50.950;18.224;2022-09-09T14:40:26;3.00;;;1.00;;
57325;SDS011;43161;50.950;18.224;2022-09-09T14:42:52;3.40;;;1.10;;
57325;SDS011;43161;50.950;18.224;2022-09-09T14:45:19;3.80;;;1.70;;
57325;SDS011;43161;50.950;18.224;2022-09-09T14:47:46;1.70;;;1.00;;
57325;SDS011;43161;50.950;18.224;2022-09-09T14:50:12;2.30;;;1.10;;
57325;SDS011;43161;50.950;18.224;2022-09-09T14:52:39;4.20;;;1.00;;
57325;SDS011;43161;50.950;18.224;2022-09-09T14:55:05;3.00;;;1.60;;
57325;SDS011;43161;50.950;18.224;2022-09-09T14:57:32;4.20;;;1.40;;
57325;SDS011;43161;50.950;18.224;2022-09-09T14:59:58;4.90;;;1.70;;
57325;SDS011;43161;50.950;18.224;2022-09-09T15:02:24;3.20;;;0.90;;
57325;SDS011;43161;50.950;18.224;2022-09-09T15:04:50;1.50;;;1.10;;
57325;SDS011;43161;50.950;18.224;2022-09-09T15:07:16;2.30;;;1.30;;
57325;SDS011;43161;50.950;18.224;2022-09-09T15:09:44;3.00;;;1.00;;
57325;SDS011;43161;50.950;18.224;2022-09-09T15:12:10;3.70;;;1.60;;
57325;SDS011;43161;50.950;18.224;2022-09-09T15:14:36;2.60;;;1.10;;
57325;SDS011;43161;50.950;18.224;2022-09-09T15:17:02;3.40;;;1.30;;
57325;SDS011;43161;50.950;18.224;2022-09-09T15:19:27;4.30;;;1.00;;
57325;SDS011;43161;50.950;18.224;2022-09-09T15:21:53;1.10;;;0.90;;
57325;SDS011;43161;50.950;18.224;2022-09-09T15:24:19;3.20;;;1.20;;
57325;SDS011;43161;50.950;18.224;2022-09-09T15:26:45;2.60;;;1.20;;
57325;SDS011;43161;50.950;18.224;2022-09-09T15:29:10;3.30;;;1.60;;
57325;SDS011;43161;50.950;18.224;2022-09-09T15:31:36;9.80;;;2.00;;
57325;SDS011;43161;50.950;18.224;2022-09-09T15:34:03;2.10;;;1.30;;
57325;SDS011;43161;50.950;18.224;2022-09-09T15:36:35;1.60;;;1.20;;
57325;SDS011;43161;50.950;18.224;2022-09-09T15:39:02;6.50;;;2.40;;
57325;SDS011;43161;50.950;18.224;2022-09-09T15:41:29;5.10;;;2.40;;
57325;SDS011;43161;50.950;18.224;2022-09-09T15:43:59;6.10;;;1.90;;
57325;SDS011;43161;50.950;18.224;2022-09-09T15:49:08;10.10;;;4.30;;
57325;SDS011;43161;50.950;18.224;2022-09-09T15:51:36;11.00;;;4.30;;
57325;SDS011;43161;50.950;18.224;2022-09-09T15:54:03;11.30;;;4.10;;
57325;SDS011;43161;50.950;18.224;2022-09-09T15:56:29;4.00;;;2.00;;
57325;SDS011;43161;50.950;18.224;2022-09-09T15:58:59;9.70;;;2.40;;
57325;SDS011;43161;50.950;18.224;2022-09-09T16:01:25;4.40;;;2.10;;
57325;SDS011;43161;50.950;18.224;2022-09-09T16:03:52;5.20;;;2.90;;
57325;SDS011;43161;50.950;18.224;2022-09-09T16:06:19;5.50;;;3.30;;
57325;SDS011;43161;50.950;18.224;2022-09-09T16:08:48;7.70;;;1.90;;
57325;SDS011;43161;50.950;18.224;2022-09-09T16:13:45;6.50;;;1.90;;
57325;SDS011;43161;50.950;18.224;2022-09-09T16:16:12;5.00;;;2.50;;
57325;SDS011;43161;50.950;18.224;2022-09-09T16:18:41;7.60;;;2.90;;
57325;SDS011;43161;50.950;18.224;2022-09-09T16:21:20;7.30;;;2.80;;
57325;SDS011;43161;50.950;18.224;2022-09-09T16:23:50;5.80;;;2.90;;
57325;SDS011;43161;50.950;18.224;2022-09-09T16:26:18;6.20;;;2.60;;
57325;SDS011;43161;50.950;18.224;2022-09-09T16:28:44;5.40;;;2.50;;
57325;SDS011;43161;50.950;18.224;2022-09-09T16:31:16;3.80;;;2.20;;
57325;SDS011;43161;50.950;18.224;2022-09-09T16:33:44;4.20;;;2.20;;
57325;SDS011;43161;50.950;18.224;2022-09-09T16:36:15;2.60;;;2.30;;
57325;SDS011;43161;50.950;18.224;2022-09-09T16:38:41;5.80;;;2.80;;
57325;SDS011;43161;50.950;18.224;2022-09-09T16:41:11;3.30;;;2.20;;
57325;SDS011;43161;50.950;18.224;2022-09-09T16:43:38;5.30;;;2.20;;
57325;SDS011;43161;50.950;18.224;2022-09-09T16:46:12;3.10;;;2.30;;
57325;SDS011;43161;50.950;18.224;2022-09-09T16:48:41;3.30;;;2.60;;
57325;SDS011;43161;50.950;18.224;2022-09-09T16:51:09;6.20;;;2.30;;
57325;SDS011;43161;50.950;18.224;2022-09-09T16:53:39;3.50;;;2.40;;
57325;SDS011;43161;50.950;18.224;2022-09-09T16:56:08;5.50;;;2.50;;
57325;SDS011;43161;50.950;18.224;2022-09-09T16:58:35;7.90;;;2.30;;
57325;SDS011;43161;50.950;18.224;2022-09-09T17:03:28;3.80;;;2.60;;
57325;SDS011;43161;50.950;18.224;2022-09-09T17:05:54;6.00;;;3.10;;
57325;SDS011;43161;50.950;18.224;2022-09-09T17:08:20;5.50;;;3.40;;
57325;SDS011;43161;50.950;18.224;2022-09-09T17:10:46;3.10;;;2.20;;
57325;SDS011;43161;50.950;18.224;2022-09-09T17:13:12;5.40;;;3.20;;
57325;SDS011;43161;50.950;18.224;2022-09-09T17:15:39;6.00;;;3.60;;
57325;SDS011;43161;50.950;18.224;2022-09-09T17:18:08;6.80;;;3.70;;
57325;SDS011;43161;50.950;18.224;2022-09-09T17:20:40;5.10;;;3.30;;
57325;SDS011;43161;50.950;18.224;2022-09-09T17:23:07;5.40;;;4.40;;
57325;SDS011;43161;50.950;18.224;2022-09-09T17:25:34;4.40;;;3.40;;
57325;SDS011;43161;50.950;18.224;2022-09-09T17:28:01;7.20;;;4.30;;
57325;SDS011;43161;50.950;18.224;2022-09-09T17:30:38;4.90;;;3.70;;
57325;SDS011;43161;50.950;18.224;2022-09-09T17:33:03;8.00;;;3.50;;
57325;SDS011;43161;50.950;18.224;2022-09-09T17:35:30;9.80;;;5.50;;
57325;SDS011;43161;50.950;18.224;2022-09-09T17:40:21;9.10;;;6.80;;
57325;SDS011;43161;50.950;18.224;2022-09-09T17:42:47;8.40;;;4.80;;
57325;SDS011;43161;50.950;18.224;2022-09-09T17:45:14;10.40;;;5.40;;
57325;SDS011;43161;50.950;18.224;2022-09-09T17:47:40;9.20;;;4.50;;
57325;SDS011;43161;50.950;18.224;2022-09-09T17:50:08;7.10;;;4.00;;
57325;SDS011;43161;50.950;18.224;2022-09-09T17:52:36;8.60;;;5.60;;
57325;SDS011;43161;50.950;18.224;2022-09-09T17:55:03;5.40;;;4.70;;
57325;SDS011;43161;50.950;18.224;2022-09-09T17:57:30;7.80;;;6.30;;
57325;SDS011;43161;50.950;18.224;2022-09-09T17:59:56;9.50;;;6.60;;